Pagrindinis puslapis
METAR-TAF:

METAR-TAF

Oro uostai :

Ringkiobingas-Skjern, Danija

platuma: 56-00N, ilguma: 008-21E, Aukštis: 5 m

Dabartinis oras

Ataskaita buvo paskelbta 1 valandą ir 2 minutes, ne 11:50 UTC
Vėjas 9 kt iš Vakarų/Šiaurės Vakarų
Temperatūra 7°C
Drėgmė 87%
Slėgis 1007 hPa
Matomumas 10 km arba daugiau
Išsisklaidę debesys ne aukštis 2000 ft
Išsisklaidę debesys ne aukštis 15000 ft

METAR: EKVJ 191150Z 29009KT 9999 SCT020 SCT150 07/05 Q1007

Laikas: 13:52 (12:52 UTC)

Prognozė

Ataskaita buvo paskelbta 1 valandą ir 30 minutes, ne 11:22 UTC
Prognozė galioja nuo 19 metu 12 UTC su 19 metu 16 UTC
Vėjas 8 kt iš Vakarų/Šiaurės Vakarų
Matomumas 10 km arba daugiau
Išsisklaidę debesys ne aukštis 2000 ft
Laikinai
nuo 19 metu 13 UTC su 19 metu 16 UTC
Matomumas: 4000 m
Su prošvaistėmis ne aukštis 800 ft
lietus

TAF: EKVJ 191122Z 1912/1916 29008KT 9999 SCT020 TEMPO 1913/1916 4000 SHRA BKN008

Orai ataskaitas ir orų prognozės (METAR, TAF).

turimą stotys yra geltonos ir raudonos taškus žemėlapyje.

Perkelti pele per norėdami pamatyti stoties vardą.

Tada spustelėkite, norėdami matyti oro stebėjimo ir prognozės.

Norėdami pakeisti žemėlapį: spustelėkite ant žalios mygtukų su juodo kryžiaus žemyn,; žalią mygtuką su brūkšneliu, jei norite nutolinti; arba žalių rodyklių gretimoms žemėlapius.


METAR-TAF: